Time;durP1;ratioP1;P1;durP2;ratioP2;P2;SDS_P1;SDS_P2;PMS_P1;PMS_P2;Temp;Humidity;BMP_temperature;BMP_pressure;BME280_temperature;BME280_humidity;BME280_pressure;Samples;Min_cycle;Max_cycle;Signal;HPM_P1;HPM_P2
2021/05/15 00:00:06;;;;;;;1.30;0.50;;;14.40;62.00;;;;;;5023385;28;20053;-83
2021/05/15 00:02:32;;;;;;;0.47;0.27;;;14.40;62.70;;;;;;5029238;28;20075;-82
2021/05/15 00:04:57;;;;;;;1.63;0.20;;;14.40;62.60;;;;;;5030970;28;20712;-82
2021/05/15 00:07:24;;;;;;;2.40;0.63;;;14.40;62.40;;;;;;5021880;28;20057;-82
2021/05/15 00:09:50;;;;;;;0.70;0.30;;;14.40;62.20;;;;;;5022019;28;20028;-82
2021/05/15 00:12:16;;;;;;;1.93;0.30;;;14.40;62.30;;;;;;5029064;28;20022;-82
2021/05/15 00:14:42;;;;;;;0.40;0.20;;;14.30;62.60;;;;;;5027938;28;20463;-82
2021/05/15 00:17:08;;;;;;;1.60;0.47;;;14.20;62.80;;;;;;5027875;28;20108;-82
2021/05/15 00:19:34;;;;;;;1.57;0.50;;;14.10;63.30;;;;;;5032665;28;20510;-83
2021/05/15 00:22:01;;;;;;;0.80;0.40;;;14.10;64.00;;;;;;5032381;28;20017;-83
2021/05/15 00:24:26;;;;;;;2.43;0.70;;;14.00;64.50;;;;;;5030857;28;20087;-83
2021/05/15 00:26:52;;;;;;;0.73;0.53;;;13.90;64.60;;;;;;5030962;28;20428;-82
2021/05/15 00:29:18;;;;;;;2.93;0.43;;;13.90;64.90;;;;;;5025172;28;20026;-82
2021/05/15 00:31:43;;;;;;;1.60;0.50;;;13.90;65.20;;;;;;5030763;28;20042;-82
2021/05/15 00:34:09;;;;;;;2.37;0.60;;;14.00;65.10;;;;;;5027884;28;20041;-83
2021/05/15 00:36:35;;;;;;;1.23;0.40;;;13.90;64.90;;;;;;5029162;28;20025;-83
2021/05/15 00:39:01;;;;;;;1.10;0.40;;;13.90;64.70;;;;;;5032859;28;20053;-82
2021/05/15 00:41:27;;;;;;;1.83;0.40;;;13.90;64.80;;;;;;5032354;28;20141;-83
2021/05/15 00:46:40;;;;;;;3.03;0.40;;;13.90;65.50;;;;;;5021710;28;20082;-82
2021/05/15 00:49:06;;;;;;;1.37;0.50;;;13.80;65.90;;;;;;5028548;28;20875;-82
2021/05/15 00:51:33;;;;;;;1.90;0.33;;;13.80;66.00;;;;;;5020408;28;20121;-82
2021/05/15 00:54:03;;;;;;;2.90;0.60;;;13.70;66.20;;;;;;5029948;28;20045;-83
2021/05/15 00:56:31;;;;;;;4.00;0.60;;;13.70;66.50;;;;;;5030351;28;20431;-82
2021/05/15 00:58:58;;;;;;;4.90;0.57;;;13.70;66.70;;;;;;5024388;28;20770;-82
2021/05/15 01:01:25;;;;;;;5.43;0.90;;;13.70;67.00;;;;;;5024412;28;20036;-82
2021/05/15 01:03:51;;;;;;;4.70;0.90;;;13.70;67.10;;;;;;5031278;28;20477;-82
2021/05/15 01:06:17;;;;;;;1.93;0.50;;;13.70;67.40;;;;;;5026995;28;20061;-83
2021/05/15 01:08:46;;;;;;;3.03;0.57;;;13.60;67.60;;;;;;5019301;28;20025;-82
2021/05/15 01:11:17;;;;;;;1.97;0.40;;;13.60;68.00;;;;;;5016896;28;20145;-83
2021/05/15 01:13:57;;;;;;;1.13;0.47;;;13.60;68.10;;;;;;5012926;28;20021;-80
2021/05/15 01:16:23;;;;;;;0.50;0.40;;;13.60;67.80;;;;;;5014512;28;20068;-82
2021/05/15 01:18:49;;;;;;;2.23;0.50;;;13.60;67.80;;;;;;5028924;28;20100;-83
2021/05/15 01:21:14;;;;;;;3.57;0.63;;;13.50;68.00;;;;;;5023077;28;20176;-81
2021/05/15 01:23:40;;;;;;;2.10;0.70;;;13.50;68.20;;;;;;5031428;28;20028;-83
2021/05/15 01:26:19;;;;;;;2.93;0.60;;;13.50;68.40;;;;;;5026549;28;20398;-82
2021/05/15 01:28:48;;;;;;;2.40;0.83;;;13.50;69.10;;;;;;5028554;28;20040;-81
2021/05/15 01:31:14;;;;;;;1.93;0.60;;;13.50;69.00;;;;;;5021677;28;20510;-83
2021/05/15 01:33:40;;;;;;;2.00;0.50;;;13.50;69.10;;;;;;5030765;28;20079;-82
2021/05/15 01:36:07;;;;;;;3.80;1.37;;;13.50;69.30;;;;;;5028364;28;20394;-82
2021/05/15 01:38:33;;;;;;;1.67;0.60;;;13.50;69.10;;;;;;5029960;28;20169;-82
2021/05/15 01:41:09;;;;;;;2.00;0.50;;;13.50;69.00;;;;;;5031087;28;20017;-82
2021/05/15 01:43:36;;;;;;;2.10;0.60;;;13.50;69.40;;;;;;5028616;28;20049;-81
2021/05/15 01:46:02;;;;;;;1.20;0.60;;;13.40;69.40;;;;;;5030130;28;20026;-82
2021/05/15 01:48:28;;;;;;;3.37;0.70;;;13.40;69.60;;;;;;5028663;28;20390;-81
2021/05/15 01:51:12;;;;;;;4.07;1.50;;;13.40;70.00;;;;;;5019481;28;20056;-83
2021/05/15 01:53:42;;;;;;;3.40;0.70;;;13.40;69.80;;;;;;5013167;28;20018;-82
2021/05/15 01:56:10;;;;;;;1.97;0.70;;;13.40;69.90;;;;;;5029526;28;20117;-82
2021/05/15 01:58:37;;;;;;;3.80;0.70;;;13.30;69.80;;;;;;5028879;28;20659;-81
2021/05/15 02:01:04;;;;;;;0.77;0.50;;;13.30;69.90;;;;;;5029968;28;20056;-82
2021/05/15 02:03:30;;;;;;;1.27;0.60;;;13.30;69.80;;;;;;5030011;28;20382;-82
2021/05/15 02:05:56;;;;;;;4.60;0.63;;;13.20;70.00;;;;;;5031290;28;20033;-81
2021/05/15 02:08:22;;;;;;;4.43;0.70;;;13.30;70.30;;;;;;5030805;28;20034;-82
2021/05/15 02:10:49;;;;;;;3.47;0.90;;;13.20;71.10;;;;;;5015841;28;20029;-81
2021/05/15 02:13:18;;;;;;;3.63;1.17;;;13.30;70.50;;;;;;5018547;28;20029;-82
2021/05/15 02:15:44;;;;;;;3.70;0.97;;;13.30;70.40;;;;;;5018122;28;20021;-82
2021/05/15 02:18:11;;;;;;;1.33;0.73;;;13.40;70.30;;;;;;5032024;28;20079;-82
2021/05/15 02:20:38;;;;;;;1.77;0.60;;;13.40;70.20;;;;;;5034492;28;20585;-82
2021/05/15 02:23:03;;;;;;;2.63;0.70;;;13.30;70.20;;;;;;5033398;28;20018;-82
2021/05/15 02:25:29;;;;;;;1.90;0.57;;;13.30;70.40;;;;;;5031328;28;20454;-82
2021/05/15 02:27:55;;;;;;;0.93;0.50;;;13.30;70.40;;;;;;5017613;28;20117;-82
2021/05/15 02:30:22;;;;;;;0.97;0.60;;;13.30;70.30;;;;;;5032886;28;20120;-82
2021/05/15 02:32:48;;;;;;;2.30;0.57;;;13.30;70.10;;;;;;5014574;28;20026;-82
2021/05/15 02:35:15;;;;;;;0.87;0.20;;;13.30;69.80;;;;;;5030794;28;20029;-76
2021/05/15 02:37:45;;;;;;;1.80;0.20;;;13.30;69.70;;;;;;5026508;28;20026;-76
2021/05/15 02:40:12;;;;;;;1.30;0.30;;;13.20;69.40;;;;;;5022345;28;20550;-76
2021/05/15 02:42:38;;;;;;;1.50;0.60;;;13.20;69.60;;;;;;5027210;28;20029;-76
2021/05/15 02:45:06;;;;;;;0.63;0.30;;;13.20;69.80;;;;;;5032487;28;20027;-76
2021/05/15 02:47:32;;;;;;;0.40;0.20;;;13.10;70.00;;;;;;5031991;28;20026;-76
2021/05/15 02:49:58;;;;;;;3.37;0.50;;;13.10;70.00;;;;;;5033301;28;20024;-83
2021/05/15 02:52:24;;;;;;;1.03;0.20;;;13.10;70.30;;;;;;5028772;28;20036;-83
2021/05/15 02:54:50;;;;;;;1.13;0.40;;;13.10;70.50;;;;;;5025781;28;20453;-83
2021/05/15 02:57:16;;;;;;;3.27;0.40;;;13.10;70.60;;;;;;5035221;28;20075;-83
2021/05/15 02:59:41;;;;;;;1.47;0.53;;;13.20;70.60;;;;;;5033935;28;20072;-82
2021/05/15 03:02:07;;;;;;;1.93;0.60;;;13.20;70.60;;;;;;5032388;28;20404;-83
2021/05/15 03:04:33;;;;;;;1.87;0.50;;;13.20;70.50;;;;;;5031925;28;20163;-83
2021/05/15 03:06:59;;;;;;;1.60;0.50;;;13.20;70.40;;;;;;5015909;28;20128;-82
2021/05/15 03:09:25;;;;;;;2.03;0.93;;;13.20;70.50;;;;;;5013986;28;20105;-82
2021/05/15 03:11:51;;;;;;;2.13;0.50;;;13.20;70.50;;;;;;5017794;28;20018;-82
2021/05/15 03:14:17;;;;;;;1.27;0.40;;;13.30;70.40;;;;;;5028707;28;20079;-83
2021/05/15 03:16:43;;;;;;;0.77;0.40;;;13.20;70.30;;;;;;5032747;28;20029;-82
2021/05/15 03:19:08;;;;;;;0.70;0.40;;;13.20;70.40;;;;;;5030467;28;20033;-82
2021/05/15 03:21:34;;;;;;;1.10;0.93;;;13.20;70.40;;;;;;5033886;28;20059;-83
2021/05/15 03:24:00;;;;;;;1.23;0.73;;;13.20;70.30;;;;;;5032921;28;20513;-82
2021/05/15 03:26:26;;;;;;;0.93;0.60;;;13.20;70.20;;;;;;5016545;28;20124;-83
2021/05/15 03:28:52;;;;;;;3.70;0.70;;;13.20;70.20;;;;;;5029634;28;20040;-82
2021/05/15 03:31:17;;;;;;;2.50;0.60;;;13.20;70.40;;;;;;5023151;28;20143;-82
2021/05/15 03:33:43;;;;;;;2.63;0.60;;;13.10;70.60;;;;;;5028101;28;20017;-82
2021/05/15 03:36:09;;;;;;;1.67;0.83;;;13.10;70.70;;;;;;5032438;28;20075;-83
2021/05/15 03:38:35;;;;;;;0.53;0.40;;;13.20;70.80;;;;;;5032354;28;20765;-82
2021/05/15 03:41:01;;;;;;;1.27;0.70;;;13.10;70.80;;;;;;5033488;28;20029;-82
2021/05/15 03:43:27;;;;;;;2.20;0.70;;;13.10;70.90;;;;;;5033468;28;20037;-83
2021/05/15 03:45:53;;;;;;;1.30;0.50;;;13.00;71.20;;;;;;5031331;28;20434;-82
2021/05/15 03:48:22;;;;;;;1.30;0.50;;;13.00;71.40;;;;;;5029248;28;20049;-82
2021/05/15 03:50:53;;;;;;;2.93;0.43;;;13.00;71.40;;;;;;5031860;28;20505;-83
2021/05/15 03:53:20;;;;;;;0.43;0.30;;;13.00;71.10;;;;;;5030589;28;20021;-82
2021/05/15 03:55:46;;;;;;;2.00;0.30;;;13.00;71.20;;;;;;5033547;28;20120;-82
2021/05/15 03:58:13;;;;;;;0.53;0.20;;;12.90;70.90;;;;;;5031801;28;20561;-82
2021/05/15 04:00:38;;;;;;;0.47;0.30;;;12.90;70.50;;;;;;5030922;28;20021;-82
2021/05/15 04:03:04;;;;;;;1.17;0.30;;;12.80;70.30;;;;;;5031676;28;20702;-83
2021/05/15 04:05:30;;;;;;;2.37;0.30;;;12.80;70.20;;;;;;5011197;28;20709;-82
2021/05/15 04:07:56;;;;;;;0.20;0.20;;;12.80;70.00;;;;;;5021162;28;20025;-82
2021/05/15 04:10:23;;;;;;;4.80;0.23;;;12.80;70.20;;;;;;5031263;28;20048;-82
2021/05/15 04:13:01;;;;;;;0.33;0.10;;;12.80;70.00;;;;;;5032927;28;20386;-83
2021/05/15 04:15:39;;;;;;;4.33;0.30;;;12.80;69.80;;;;;;5027010;28;20406;-83
2021/05/15 04:18:13;;;;;;;0.93;0.50;;;12.70;69.10;;;;;;5029561;28;20071;-82
2021/05/15 04:20:40;;;;;;;0.50;0.20;;;12.60;68.80;;;;;;5013633;28;20363;-83
2021/05/15 04:23:07;;;;;;;0.73;0.10;;;12.50;69.30;;;;;;5025459;28;20231;-83
2021/05/15 04:25:33;;;;;;;2.07;0.20;;;12.50;69.40;;;;;;5031488;28;20036;-82
2021/05/15 04:27:59;;;;;;;0.43;0.13;;;12.50;69.30;;;;;;5031839;28;20036;-82
2021/05/15 04:30:26;;;;;;;0.50;0.20;;;12.50;69.40;;;;;;5030859;28;20095;-82
2021/05/15 04:32:53;;;;;;;2.53;0.30;;;12.40;69.40;;;;;;5030609;28;20036;-82
2021/05/15 04:35:20;;;;;;;0.50;0.20;;;12.40;69.50;;;;;;5024486;28;20030;-83
2021/05/15 04:37:45;;;;;;;0.77;0.20;;;12.40;69.50;;;;;;5014318;28;20025;-83
2021/05/15 04:40:12;;;;;;;2.20;0.10;;;12.40;69.80;;;;;;5020129;28;20018;-83
2021/05/15 04:42:38;;;;;;;0.10;0.10;;;12.40;69.70;;;;;;5013412;28;20025;-83
2021/05/15 04:45:13;;;;;;;0.87;0.27;;;12.40;69.90;;;;;;5011731;28;20120;-83
2021/05/15 04:47:39;;;;;;;0.87;0.30;;;12.40;70.30;;;;;;5020761;28;20059;-82
2021/05/15 04:50:07;;;;;;;0.40;0.30;;;12.50;70.20;;;;;;5030758;28;20372;-83
2021/05/15 04:52:33;;;;;;;1.13;0.30;;;12.50;70.00;;;;;;5030711;28;20045;-82
2021/05/15 04:54:59;;;;;;;1.27;0.50;;;12.60;69.80;;;;;;5031789;28;20364;-83
2021/05/15 04:57:24;;;;;;;1.33;0.50;;;12.60;69.60;;;;;;5023777;28;20429;-83
2021/05/15 04:59:50;;;;;;;0.80;0.50;;;12.60;69.50;;;;;;5028792;28;20025;-82
2021/05/15 05:02:16;;;;;;;1.00;0.30;;;12.70;69.40;;;;;;5031262;28;20029;-83
2021/05/15 05:04:42;;;;;;;1.63;0.70;;;12.70;69.40;;;;;;5031501;28;20701;-82
2021/05/15 05:07:08;;;;;;;1.43;0.57;;;12.70;69.20;;;;;;5032412;28;20041;-82
2021/05/15 05:09:33;;;;;;;1.43;0.60;;;12.70;69.30;;;;;;5021573;28;20030;-81
2021/05/15 05:11:59;;;;;;;1.87;0.80;;;12.80;69.30;;;;;;5021561;28;20045;-82
2021/05/15 05:14:25;;;;;;;1.37;0.73;;;12.80;69.20;;;;;;5022977;28;20029;-80
2021/05/15 05:16:55;;;;;;;2.27;0.63;;;12.80;69.20;;;;;;5021107;28;20093;-82
2021/05/15 05:19:22;;;;;;;1.07;0.60;;;12.90;69.10;;;;;;5031542;28;20017;-82
2021/05/15 05:21:49;;;;;;;4.80;0.60;;;12.90;69.00;;;;;;5030337;28;20435;-82
2021/05/15 05:24:15;;;;;;;0.70;0.60;;;13.00;69.00;;;;;;5028082;28;20052;-82
2021/05/15 05:26:41;;;;;;;1.60;0.50;;;13.00;68.90;;;;;;5031311;28;20064;-82
2021/05/15 05:29:09;;;;;;;1.83;1.17;;;13.00;68.80;;;;;;5029552;28;20053;-82
2021/05/15 05:31:43;;;;;;;0.67;0.50;;;12.90;68.80;;;;;;5024433;28;20038;-83
2021/05/15 05:34:09;;;;;;;1.00;0.60;;;12.80;69.00;;;;;;5017894;28;20616;-82
2021/05/15 05:36:36;;;;;;;1.53;0.70;;;12.80;69.30;;;;;;5028269;28;20049;-82
2021/05/15 05:39:07;;;;;;;2.10;0.60;;;12.90;69.50;;;;;;5023920;28;20029;-82
2021/05/15 05:41:32;;;;;;;2.20;0.80;;;12.80;69.50;;;;;;5029918;28;20125;-83
2021/05/15 05:43:58;;;;;;;0.90;0.70;;;12.90;69.90;;;;;;5022629;28;20109;-83
2021/05/15 05:46:24;;;;;;;2.60;1.00;;;12.90;69.90;;;;;;5030599;28;20505;-83
2021/05/15 05:48:50;;;;;;;2.33;1.13;;;12.90;69.80;;;;;;5034887;28;20040;-83
2021/05/15 05:51:15;;;;;;;1.53;1.00;;;12.90;70.00;;;;;;5026654;28;20037;-82
2021/05/15 05:53:41;;;;;;;1.60;0.60;;;13.00;70.00;;;;;;5029175;28;20028;-81
2021/05/15 05:56:07;;;;;;;3.17;0.90;;;13.00;70.00;;;;;;5032319;28;20018;-83
2021/05/15 05:58:33;;;;;;;2.00;0.47;;;13.00;70.00;;;;;;5032762;28;20170;-83
2021/05/15 06:00:59;;;;;;;0.87;0.50;;;13.00;69.90;;;;;;5031214;28;20022;-83
2021/05/15 06:03:25;;;;;;;2.00;0.50;;;13.00;69.80;;;;;;5031839;28;20354;-83
2021/05/15 06:05:50;;;;;;;1.47;0.60;;;13.00;69.70;;;;;;5031558;28;20029;-83
2021/05/15 06:08:16;;;;;;;2.27;1.47;;;13.00;69.70;;;;;;5031150;28;20029;-81
2021/05/15 06:10:42;;;;;;;5.63;0.90;;;13.00;69.90;;;;;;5032633;28;20021;-82
2021/05/15 06:13:10;;;;;;;2.27;1.07;;;13.00;69.90;;;;;;5030012;28;20470;-83
2021/05/15 06:15:37;;;;;;;1.80;1.40;;;13.00;70.10;;;;;;5033993;28;20084;-83
2021/05/15 06:18:05;;;;;;;1.77;0.87;;;13.00;70.20;;;;;;5029723;28;20447;-83
2021/05/15 06:20:31;;;;;;;2.40;1.17;;;13.00;70.10;;;;;;5029109;28;20116;-83
2021/05/15 06:22:57;;;;;;;1.20;0.60;;;13.00;70.10;;;;;;5024785;28;20056;-83
2021/05/15 06:25:23;;;;;;;1.00;0.60;;;13.00;70.00;;;;;;5032323;28;20371;-82
2021/05/15 06:27:49;;;;;;;0.63;0.33;;;13.00;70.10;;;;;;5032681;28;20157;-82
2021/05/15 06:30:15;;;;;;;1.57;0.40;;;13.00;70.10;;;;;;5030229;28;20026;-83
2021/05/15 06:32:42;;;;;;;0.60;0.37;;;13.00;70.30;;;;;;5027676;28;20081;-83
2021/05/15 06:35:08;;;;;;;1.13;0.47;;;13.00;70.30;;;;;;5019028;28;20060;-83
2021/05/15 06:37:34;;;;;;;0.83;0.30;;;13.00;70.00;;;;;;5018385;28;20029;-84
2021/05/15 06:40:00;;;;;;;0.73;0.20;;;13.10;69.70;;;;;;5030376;28;20021;-83
2021/05/15 06:42:25;;;;;;;2.53;0.40;;;13.10;69.80;;;;;;5027651;28;20141;-84
2021/05/15 06:44:51;;;;;;;1.63;0.30;;;13.20;69.90;;;;;;5035324;28;20115;-83
2021/05/15 06:47:17;;;;;;;0.70;0.50;;;13.30;69.50;;;;;;5029479;28;20048;-84
2021/05/15 06:49:44;;;;;;;1.03;0.40;;;13.40;69.10;;;;;;5033293;28;20037;-81
2021/05/15 06:52:11;;;;;;;1.00;0.63;;;13.40;68.70;;;;;;5031134;28;20028;-83
2021/05/15 06:54:37;;;;;;;1.77;0.73;;;13.50;68.50;;;;;;5032616;28;20355;-84
2021/05/15 06:57:03;;;;;;;3.00;0.90;;;13.50;68.20;;;;;;5030916;28;20021;-83
2021/05/15 06:59:29;;;;;;;1.97;0.90;;;13.50;68.20;;;;;;5020620;28;20014;-83
2021/05/15 07:01:55;;;;;;;1.50;1.40;;;13.60;68.50;;;;;;5021821;28;20060;-82
2021/05/15 07:04:20;;;;;;;2.93;1.67;;;13.60;68.70;;;;;;5028276;28;20026;-83
2021/05/15 07:06:47;;;;;;;2.40;1.27;;;13.60;68.70;;;;;;5027070;28;20490;-83
2021/05/15 07:09:13;;;;;;;1.50;1.17;;;13.70;68.60;;;;;;5018851;28;20563;-83
2021/05/15 07:11:39;;;;;;;1.33;1.00;;;13.80;68.40;;;;;;5027285;28;20038;-82
2021/05/15 07:14:05;;;;;;;2.57;1.20;;;13.80;68.30;;;;;;5034001;28;20010;-82
2021/05/15 07:16:30;;;;;;;1.87;1.07;;;13.80;68.20;;;;;;5027512;28;20058;-82
2021/05/15 07:18:56;;;;;;;3.17;1.50;;;13.90;67.80;;;;;;5027054;28;20099;-83
2021/05/15 07:21:23;;;;;;;2.00;1.10;;;13.90;67.50;;;;;;5031060;28;20526;-83
2021/05/15 07:23:49;;;;;;;2.87;1.60;;;13.90;67.30;;;;;;5033147;28;20228;-83
2021/05/15 07:26:14;;;;;;;1.80;0.67;;;14.00;67.00;;;;;;5029094;28;20022;-83
2021/05/15 07:28:40;;;;;;;0.87;0.60;;;14.00;67.30;;;;;;5031663;28;20036;-83
2021/05/15 07:31:06;;;;;;;1.23;0.73;;;14.10;66.20;;;;;;5033485;28;20092;-84
2021/05/15 07:33:32;;;;;;;1.17;0.67;;;14.20;66.00;;;;;;5031467;28;20112;-83
2021/05/15 07:35:58;;;;;;;3.20;1.00;;;14.20;65.60;;;;;;5030799;28;20033;-83
2021/05/15 07:38:31;;;;;;;3.13;1.10;;;14.30;65.40;;;;;;5031453;28;20140;-83
2021/05/15 07:40:57;;;;;;;3.13;1.23;;;14.30;65.60;;;;;;5034443;28;20111;-83
2021/05/15 07:43:24;;;;;;;2.20;1.00;;;14.40;65.30;;;;;;5027876;28;20051;-83
2021/05/15 07:45:51;;;;;;;3.73;1.97;;;14.40;65.20;;;;;;5033551;28;20269;-83
2021/05/15 07:48:16;;;;;;;3.90;1.63;;;14.40;65.20;;;;;;5031363;28;20547;-83
2021/05/15 07:50:43;;;;;;;2.00;1.40;;;14.50;65.20;;;;;;5026091;28;20029;-83
2021/05/15 07:53:08;;;;;;;3.30;1.20;;;14.50;65.20;;;;;;5031950;28;20124;-83
2021/05/15 07:55:34;;;;;;;1.97;1.30;;;14.60;65.00;;;;;;5028803;28;20050;-83
2021/05/15 07:58:00;;;;;;;2.57;1.47;;;14.60;64.80;;;;;;5031335;28;20696;-83
2021/05/15 08:00:26;;;;;;;0.90;0.80;;;14.70;64.70;;;;;;5032668;28;20052;-81
2021/05/15 08:02:51;;;;;;;1.43;0.90;;;14.70;64.60;;;;;;5028215;28;20524;-82
2021/05/15 08:05:17;;;;;;;1.40;1.30;;;14.70;64.40;;;;;;5030392;28;20075;-83
2021/05/15 08:07:43;;;;;;;2.07;1.60;;;14.70;64.50;;;;;;5033073;28;20100;-83
2021/05/15 08:10:09;;;;;;;2.27;1.23;;;14.70;64.40;;;;;;5028544;28;20048;-83
2021/05/15 08:12:36;;;;;;;2.10;1.20;;;14.70;64.20;;;;;;5030965;28;20029;-83
2021/05/15 08:15:03;;;;;;;1.73;1.10;;;14.70;64.20;;;;;;5022458;28;20429;-83
2021/05/15 08:17:33;;;;;;;1.50;1.17;;;14.70;64.40;;;;;;5013067;28;20121;-84
2021/05/15 08:19:59;;;;;;;1.73;0.87;;;14.80;64.40;;;;;;5019551;28;20490;-83
2021/05/15 08:22:25;;;;;;;5.37;0.97;;;14.80;63.90;;;;;;5024107;28;20025;-83
2021/05/15 08:24:50;;;;;;;1.87;1.00;;;14.80;63.90;;;;;;5021673;28;20139;-83
2021/05/15 08:27:16;;;;;;;3.40;1.13;;;14.80;64.10;;;;;;5030900;28;20057;-83
2021/05/15 08:29:42;;;;;;;4.03;1.20;;;14.80;64.10;;;;;;5036194;28;20044;-83
2021/05/15 08:32:07;;;;;;;1.97;1.43;;;14.90;64.10;;;;;;5022546;28;20045;-83
2021/05/15 08:34:33;;;;;;;3.30;2.00;;;14.80;64.40;;;;;;5031913;28;20018;-83
2021/05/15 08:36:59;;;;;;;2.00;0.93;;;14.90;64.60;;;;;;5033515;28;20041;-83
2021/05/15 08:39:24;;;;;;;2.07;1.17;;;14.90;64.50;;;;;;5026672;28;20042;-83
2021/05/15 08:41:50;;;;;;;1.27;1.17;;;15.00;64.50;;;;;;5026131;28;20075;-83
2021/05/15 08:44:18;;;;;;;2.77;1.20;;;15.00;64.50;;;;;;5029098;28;20052;-83
2021/05/15 08:46:45;;;;;;;5.63;1.40;;;15.10;64.50;;;;;;5018237;28;20025;-83
2021/05/15 08:49:13;;;;;;;3.17;1.10;;;15.10;64.60;;;;;;5021292;28;20036;-82
2021/05/15 08:51:39;;;;;;;3.17;1.10;;;15.10;64.40;;;;;;5023132;28;20080;-82
2021/05/15 08:54:06;;;;;;;2.53;1.13;;;15.10;64.20;;;;;;5023867;28;20053;-83
2021/05/15 08:56:31;;;;;;;1.40;1.07;;;15.20;64.00;;;;;;5023047;28;20028;-84
2021/05/15 08:58:57;;;;;;;1.97;1.23;;;15.20;63.90;;;;;;5030202;28;20029;-83
2021/05/15 09:01:24;;;;;;;2.37;1.17;;;15.20;63.80;;;;;;5020362;28;20133;-84
2021/05/15 09:03:50;;;;;;;3.83;1.17;;;15.30;64.00;;;;;;5013075;28;20080;-83
2021/05/15 09:06:16;;;;;;;2.17;1.60;;;15.40;63.80;;;;;;5013865;28;20052;-83
2021/05/15 09:08:48;;;;;;;4.27;1.47;;;15.50;63.90;;;;;;5027574;28;20398;-83
2021/05/15 09:11:15;;;;;;;3.87;1.53;;;15.70;63.80;;;;;;5031259;28;20061;-84
2021/05/15 09:13:50;;;;;;;4.97;1.77;;;15.70;63.50;;;;;;5031339;28;20056;-83
2021/05/15 09:16:16;;;;;;;2.07;1.10;;;15.70;63.40;;;;;;5032278;28;20035;-84
2021/05/15 09:18:42;;;;;;;1.50;1.08;;;15.90;63.40;;;;;;5027135;28;20017;-84
2021/05/15 09:21:22;;;;;;;1.25;1.00;;;16.00;63.10;;;;;;5030906;28;20071;-84
2021/05/15 09:23:49;;;;;;;1.73;0.70;;;16.10;62.70;;;;;;5025818;28;20052;-83
2021/05/15 09:26:25;;;;;;;1.80;0.93;;;16.20;62.40;;;;;;5023676;28;20057;-84
2021/05/15 09:28:54;;;;;;;2.25;1.17;;;16.30;61.90;;;;;;5031502;28;20079;-84
2021/05/15 09:31:40;;;;;;;1.17;1.00;;;16.30;61.70;;;;;;5031697;28;20045;-84
2021/05/15 09:34:08;;;;;;;2.33;1.20;;;16.50;62.00;;;;;;5025966;28;20056;-84
2021/05/15 09:36:36;;;;;;;3.33;1.00;;;16.60;61.90;;;;;;5022215;28;20034;-82
2021/05/15 09:39:08;;;;;;;2.13;0.82;;;16.60;61.70;;;;;;5028188;28;20117;-82
2021/05/15 09:41:48;;;;;;;2.13;1.27;;;16.60;60.80;;;;;;5020442;28;20398;-82
2021/05/15 09:44:24;;;;;;;1.95;0.90;;;16.50;61.00;;;;;;5029424;28;20054;-82
2021/05/15 09:46:52;;;;;;;1.73;1.00;;;16.50;60.90;;;;;;5031778;28;20580;-82
2021/05/15 09:49:26;;;;;;;1.77;1.10;;;16.60;60.40;;;;;;5029063;28;20045;-82
2021/05/15 09:51:57;;;;;;;2.17;0.88;;;16.70;60.00;;;;;;5031097;28;20032;-84
2021/05/15 09:54:26;;;;;;;5.13;1.13;;;16.90;59.50;;;;;;5030534;28;20029;-82
2021/05/15 09:57:10;;;;;;;1.35;0.85;;;16.90;59.10;;;;;;5019769;28;20459;-82
2021/05/15 09:59:44;;;;;;;4.20;0.88;;;17.00;59.10;;;;;;5018413;28;20057;-83
2021/05/15 10:02:15;;;;;;;1.90;0.88;;;17.00;58.80;;;;;;5046481;28;20029;-82
2021/05/15 10:04:43;;;;;;;1.00;0.70;;;17.00;58.10;;;;;;5027548;28;20379;-82
2021/05/15 10:07:20;;;;;;;1.42;0.80;;;17.00;58.20;;;;;;5030174;28;20513;-82
2021/05/15 10:09:47;;;;;;;1.10;0.57;;;17.00;58.10;;;;;;5013658;28;20021;-82
2021/05/15 10:12:12;;;;;;;1.90;0.70;;;17.00;57.80;;;;;;5031630;28;20075;-82
2021/05/15 10:14:38;;;;;;;2.65;1.23;;;17.00;57.90;;;;;;5034266;28;20100;-82
2021/05/15 10:17:05;;;;;;;2.10;0.70;;;17.00;57.10;;;;;;5032924;28;20025;-82
2021/05/15 10:19:30;;;;;;;1.30;0.90;;;17.10;57.00;;;;;;5031110;28;20056;-82
2021/05/15 10:21:57;;;;;;;2.15;0.60;;;17.30;57.00;;;;;;5032360;28;20037;-82
2021/05/15 10:24:33;;;;;;;4.40;0.88;;;17.50;56.70;;;;;;5030226;28;20030;-82
2021/05/15 10:27:04;;;;;;;2.50;0.70;;;17.50;56.40;;;;;;5027613;28;20096;-82
2021/05/15 10:29:48;;;;;;;2.15;0.70;;;17.50;56.10;;;;;;5022134;28;20116;-82
2021/05/15 10:32:30;;;;;;;1.10;0.88;;;17.70;56.50;;;;;;5030658;28;20045;-82
2021/05/15 10:35:07;;;;;;;2.13;0.87;;;17.80;54.90;;;;;;5040032;28;20026;-83
2021/05/15 10:37:38;;;;;;;1.10;0.70;;;17.80;55.30;;;;;;5033899;28;20025;-83
2021/05/15 10:40:21;;;;;;;3.63;1.02;;;17.90;54.40;;;;;;5036061;28;20026;-82
2021/05/15 10:42:58;;;;;;;0.93;0.45;;;18.10;53.00;;;;;;5028324;28;20391;-83
2021/05/15 10:45:34;;;;;;;1.42;0.60;;;18.20;53.10;;;;;;5027993;28;20376;-84
2021/05/15 10:48:22;;;;;;;1.40;0.55;;;18.20;52.80;;;;;;5034127;28;20413;-83
2021/05/15 10:50:59;;;;;;;1.60;0.70;;;18.10;52.50;;;;;;5026407;28;20045;-83
2021/05/15 10:53:26;;;;;;;1.77;0.73;;;18.20;52.30;;;;;;5034510;28;20500;-83
2021/05/15 10:56:18;;;;;;;3.10;0.65;;;18.20;52.20;;;;;;5028340;28;20079;-82
2021/05/15 10:58:50;;;;;;;3.47;0.82;;;18.20;51.60;;;;;;5035829;28;20029;-83
2021/05/15 11:01:23;;;;;;;1.17;0.60;;;18.10;51.50;;;;;;5015765;28;20505;-83
2021/05/15 11:03:50;;;;;;;2.35;0.85;;;18.30;51.50;;;;;;5039794;28;20033;-83
2021/05/15 11:06:24;;;;;;;0.50;0.40;;;18.40;51.30;;;;;;5027225;28;20121;-83
2021/05/15 11:09:01;;;;;;;3.17;0.85;;;18.60;51.20;;;;;;5035018;28;20036;-83
2021/05/15 11:11:41;;;;;;;0.80;0.50;;;18.70;49.70;;;;;;5033920;28;20094;-82
2021/05/15 11:14:29;;;;;;;0.93;0.63;;;18.80;49.10;;;;;;5034525;28;20037;-83
2021/05/15 11:17:16;;;;;;;0.93;0.52;;;19.00;49.10;;;;;;5030726;28;20041;-83
2021/05/15 11:19:52;;;;;;;3.92;0.60;;;19.00;48.50;;;;;;5031486;28;20018;-80
2021/05/15 11:22:19;;;;;;;1.75;0.40;;;18.90;48.30;;;;;;5026222;28;20025;-80
2021/05/15 11:24:54;;;;;;;0.80;0.50;;;18.90;48.30;;;;;;5030177;28;20552;-83
2021/05/15 11:27:21;;;;;;;1.60;0.45;;;18.90;47.70;;;;;;5034118;28;20022;-82
2021/05/15 11:30:08;;;;;;;1.52;0.40;;;18.90;47.50;;;;;;5024477;28;20490;-84
2021/05/15 11:32:34;;;;;;;4.05;0.50;;;18.80;47.30;;;;;;5044475;28;20041;-83
2021/05/15 11:35:03;;;;;;;1.92;0.60;;;18.80;47.40;;;;;;5048328;28;20091;-83
2021/05/15 11:37:29;;;;;;;1.08;0.43;;;18.80;46.80;;;;;;5024198;28;20076;-84
2021/05/15 11:39:55;;;;;;;3.45;1.20;;;18.80;46.60;;;;;;5019884;28;20486;-84
2021/05/15 11:42:27;;;;;;;1.80;0.70;;;18.70;46.20;;;;;;5024895;28;20029;-84
2021/05/15 11:44:53;;;;;;;1.95;0.60;;;18.70;46.20;;;;;;5028844;28;20494;-84
2021/05/15 11:47:22;;;;;;;2.55;0.25;;;18.80;46.50;;;;;;5026081;28;20052;-84
2021/05/15 11:50:14;;;;;;;1.63;0.50;;;18.80;46.20;;;;;;5033225;28;20033;-86
2021/05/15 11:52:40;;;;;;;3.28;1.15;;;18.80;46.50;;;;;;5017920;28;20044;-83
2021/05/15 11:55:06;;;;;;;1.45;0.60;;;18.90;46.50;;;;;;5031133;28;20092;-84
2021/05/15 11:57:31;;;;;;;1.30;0.50;;;19.00;46.10;;;;;;5034838;28;20025;-83
2021/05/15 12:00:14;;;;;;;1.00;0.65;;;18.90;45.90;;;;;;5033818;28;20398;-84
2021/05/15 12:02:46;;;;;;;0.80;0.40;;;18.90;45.60;;;;;;5026970;28;20025;-84
2021/05/15 12:05:16;;;;;;;0.95;0.57;;;19.10;45.10;;;;;;5027164;28;20040;-83
2021/05/15 12:07:52;;;;;;;1.58;0.50;;;19.20;45.00;;;;;;5026247;28;20034;-84
2021/05/15 12:10:24;;;;;;;1.20;0.55;;;19.40;45.20;;;;;;5021235;28;20026;-84
2021/05/15 12:12:58;;;;;;;1.63;0.50;;;19.50;45.10;;;;;;5031297;28;20044;-84
2021/05/15 12:15:25;;;;;;;0.70;0.35;;;19.60;45.10;;;;;;5031473;28;20099;-84
2021/05/15 12:17:51;;;;;;;3.33;0.60;;;19.70;45.60;;;;;;5028924;28;20026;-82
2021/05/15 12:20:29;;;;;;;1.13;0.50;;;19.80;45.20;;;;;;5027023;28;20030;-84
2021/05/15 12:23:25;;;;;;;0.68;0.40;;;19.80;44.70;;;;;;5028159;28;20036;-84
2021/05/15 12:26:08;;;;;;;1.15;0.50;;;19.90;44.90;;;;;;5024985;28;20091;-83
2021/05/15 12:28:49;;;;;;;1.40;0.45;;;19.90;44.60;;;;;;5031664;28;20052;-83
2021/05/15 12:31:27;;;;;;;0.63;0.43;;;20.00;44.40;;;;;;5030768;28;20072;-84
2021/05/15 12:33:59;;;;;;;1.13;0.60;;;20.00;44.50;;;;;;5028206;28;20022;-83
2021/05/15 12:36:33;;;;;;;2.60;0.50;;;20.00;44.60;;;;;;5015783;28;20483;-83
2021/05/15 12:38:59;;;;;;;0.50;0.40;;;19.90;45.00;;;;;;5030347;28;20533;-84
2021/05/15 12:41:33;;;;;;;2.33;0.60;;;20.00;45.00;;;;;;5026619;28;20553;-84
2021/05/15 12:44:13;;;;;;;1.48;0.40;;;20.00;44.80;;;;;;5031848;28;20109;-84
2021/05/15 12:46:41;;;;;;;0.50;0.20;;;20.00;44.00;;;;;;5030174;28;20034;-83
2021/05/15 12:49:12;;;;;;;0.80;0.30;;;19.90;43.70;;;;;;5029128;28;20040;-83
2021/05/15 12:51:44;;;;;;;1.23;0.75;;;19.90;43.90;;;;;;5031853;28;20036;-83
2021/05/15 12:54:15;;;;;;;0.88;0.30;;;19.90;43.70;;;;;;5030475;28;20079;-83
2021/05/15 12:56:41;;;;;;;2.95;0.40;;;20.00;44.00;;;;;;5020166;28;20145;-83